Flight Track Log - Related Links

Times and Time Zones

All times are in EDT time to prevent confusion due to time zone crossing. See the AAY860 flight status page for this flight to view local times or setup timezone preferences in your user account.

Time Position Orientation Groundspeed Altitude Reporting Facility
EDT Latitude Longitude Course Direction KTS MPH feet Rate Location/Type
Sat 06:21:02 AM 27.8833 -82.6833 180° South 165 190 1,000  Level Tampa TRACON
Sat 06:21:44 AM 27.8500 -82.6833 180° South 179 206 2,200 1,925 Climbing Tampa TRACON
Sat 06:23:16 AM 27.8753 -82.7342 299° West 233 268 5,300 2,196 Climbing Miami Center
Sat 06:24:17 AM 27.9494 -82.7200 10° North 265 305 7,800 2,529 Climbing Miami Center
Sat 06:25:17 AM 28.0297 -82.7058 North 285 328 10,400 1,934 Climbing Miami Center
Sat 06:26:18 AM 28.1214 -82.7006 North 315 362 11,700 1,596 Climbing Miami Center
Sat 06:26:51 AM 28.1894 -82.6994 North 332 382 12,900 2,387 Climbing Jacksonville Center
Sat 06:27:51 AM 28.3000 -82.6944 North 366 421 15,400 2,300 Climbing Jacksonville Center
Sat 06:28:51 AM 28.4169 -82.6847 North 395 455 17,500 2,100 Climbing Jacksonville Center
Sat 06:29:51 AM 28.5358 -82.6822 North 412 474 19,600 1,800 Climbing Jacksonville Center
Sat 06:30:51 AM 28.6569 -82.6750 North 423 487 21,100 1,500 Climbing Jacksonville Center
Sat 06:31:51 AM 28.7800 -82.6653 North 428 493 22,600 1,500 Climbing Jacksonville Center
Sat 06:32:51 AM 28.9072 -82.6578 North 444 511 24,100 1,550 Climbing Jacksonville Center
Sat 06:33:51 AM 29.0408 -82.6503 North 456 525 25,700 1,900 Climbing Jacksonville Center
Sat 06:34:51 AM 29.1703 -82.6428 North 463 533 27,900 1,800 Climbing Jacksonville Center
Sat 06:35:51 AM 29.2975 -82.6353 North 458 527 29,300 1,300 Climbing Jacksonville Center
Sat 06:36:51 AM 29.4228 -82.6278 North 458 527 30,500 1,200 Climbing Jacksonville Center
Sat 06:37:51 AM 29.5522 -82.6206 North 458 527 31,700 1,100 Climbing Jacksonville Center
Sat 06:38:51 AM 29.6817 -82.6128 North 458 527 32,700 600 Climbing Jacksonville Center
Sat 06:39:51 AM 29.8089 -82.6053 North 458 527 32,900 150 Climbing Jacksonville Center
Sat 06:40:51 AM 29.9383 -82.5978 North 458 527 33,000  Climbing Jacksonville Center
Sat 06:41:51 AM 30.0533 -82.5975 360° North 458 527 32,900 -50 Descending Jacksonville Center
Sat 06:42:51 AM 30.1953 -82.5897 North 458 527 32,900  Level Jacksonville Center
Sat 06:43:51 AM 30.3225 -82.5822 North 458 527 32,900 50 Level Jacksonville Center
Sat 06:44:51 AM 30.4497 -82.5744 North 458 527 33,000  Climbing Jacksonville Center
Sat 06:45:51 AM 30.5792 -82.5669 North 458 527 32,900 -50 Descending Jacksonville Center
Sat 06:46:51 AM 30.7067 -82.5592 North 458 527 32,900  Level Jacksonville Center
Sat 06:47:51 AM 30.8339 -82.5514 North 458 527 32,900  Level Jacksonville Center
Sat 06:48:51 AM 30.9633 -82.5436 North 458 527 32,900  Level Jacksonville Center
Sat 06:49:51 AM 31.0886 -82.5358 North 458 527 32,900  Level Jacksonville Center
Sat 06:50:51 AM 31.2181 -82.5306 North 458 527 32,900  Level Jacksonville Center
Sat 06:51:51 AM 31.3433 -82.5228 North 458 527 32,900 50 Level Jacksonville Center
Sat 06:52:51 AM 31.4811 -82.5100 North 458 527 33,000 50 Climbing Jacksonville Center
Sat 06:53:51 AM 31.6044 -82.5242 354° North 451 519 33,000  Level Jacksonville Center
Sat 06:54:51 AM 31.7256 -82.5678 343° North 451 519 33,000  Level Jacksonville Center
Sat 06:56:05 AM 31.8636 -82.6181 343° North 455 524 33,000  Level Atlanta Center
Sat 06:57:05 AM 31.9850 -82.6553 345° North 455 524 33,000  Level Atlanta Center
Sat 06:58:05 AM 32.1067 -82.6953 344° North 455 524 33,000  Level Atlanta Center
Sat 06:59:05 AM 32.2281 -82.7375 344° North 455 524 33,000  Level Atlanta Center
Sat 07:00:05 AM 32.3475 -82.7775 344° North 455 524 33,000  Level Atlanta Center
Sat 07:01:05 AM 32.4689 -82.8203 343° North 455 524 33,000  Level Atlanta Center
Sat 07:02:05 AM 32.5864 -82.8581 345° North 449 517 33,000  Level Atlanta Center
Sat 07:03:05 AM 32.7097 -82.9008 344° North 444 511 33,000  Level Atlanta Center
Sat 07:04:05 AM 32.8269 -82.9414 344° North 444 511 33,000 400 Level Atlanta Center
Sat 07:05:05 AM 32.9486 -82.9819 344° North 444 511 33,800 500 Climbing Atlanta Center
Sat 07:06:05 AM 33.0700 -83.0225 344° North 444 511 34,000 100 Climbing Atlanta Center
Sat 07:07:05 AM 33.1892 -83.0633 344° North 444 511 34,000  Level Atlanta Center
Sat 07:08:05 AM 33.3044 -83.1042 344° North 438 504 34,000  Level Atlanta Center
Sat 07:09:05 AM 33.4236 -83.1453 344° North 438 504 34,000  Level Atlanta Center
Sat 07:10:05 AM 33.5408 -83.1839 345° North 438 504 34,000  Level Atlanta Center
Sat 07:11:05 AM 33.6642 -83.2253 344° North 438 504 34,000  Level Atlanta Center
Sat 07:12:05 AM 33.7833 -83.2664 344° North 443 510 34,000  Level Atlanta Center
Sat 07:13:05 AM 33.9047 -83.3106 343° North 443 510 34,000  Level Atlanta Center
Sat 07:14:05 AM 34.0261 -83.3494 345° North 443 510 34,000  Level Atlanta Center
Sat 07:15:05 AM 34.1472 -83.3811 348° North 443 510 34,000  Level Atlanta Center
Sat 07:16:05 AM 34.2831 -83.4203 347° North 448 516 34,000  Level Atlanta Center
Sat 07:17:05 AM 34.4064 -83.4547 347° North 448 516 34,000  Level Atlanta Center
Sat 07:18:05 AM 34.5256 -83.4892 347° North 448 516 34,000  Level Atlanta Center
Sat 07:19:05 AM 34.6467 -83.5261 346° North 448 516 34,000  Level Atlanta Center
Sat 07:20:05 AM 34.7533 -83.5558 347° North 438 504 34,000  Level Atlanta Center
Sat 07:21:05 AM 34.8892 -83.5931 347° North 443 510 34,000  Level Atlanta Center
Sat 07:22:05 AM 35.0061 -83.6306 345° North 438 504 34,000 -250 Level Atlanta Center
Sat 07:23:05 AM 35.1231 -83.6656 346° North 433 498 33,500 -750 Descending Atlanta Center
Sat 07:24:05 AM 35.2464 -83.7031 346° North 433 498 32,500 -1,000 Descending Atlanta Center
Sat 07:25:05 AM 35.3633 -83.7408 345° North 433 498 31,500 -950 Descending Atlanta Center
Sat 07:26:05 AM 35.4864 -83.7761 347° North 433 498 30,600 -750 Descending Atlanta Center
Sat 07:27:05 AM 35.6033 -83.8114 346° North 433 498 30,000 -300 Descending Atlanta Center
Sat 07:28:05 AM 35.7222 -83.8494 345° North 428 493 30,000 -350 Level Atlanta Center
Sat 07:29:05 AM 35.8414 -83.8875 345° North 428 493 29,300 -900 Descending Atlanta Center
Sat 07:30:05 AM 35.9603 -83.9233 346° North 433 498 28,200 -1,110 Descending Atlanta Center
Sat 07:32:25 AM 36.2467 -83.9906 349° North 444 511 25,600 -1,104 Descending Indianapolis Center
Sat 07:33:26 AM 36.3628 -84.0217 348° North 436 502 24,500 -787 Descending Indianapolis Center
Sat 07:34:27 AM 36.4789 -84.0519 348° North 434 499 24,000 -246 Descending Indianapolis Center
Sat 07:35:28 AM 36.5808 -84.0789 348° North 429 494 24,000  Level Indianapolis Center
Sat 07:36:29 AM 36.7167 -84.1181 347° North 429 494 24,000 -344 Level Indianapolis Center
Sat 07:37:30 AM 36.8236 -84.1472 348° North 405 466 23,300 -1,388 Descending Indianapolis Center
Sat 07:38:30 AM 36.9294 -84.1772 347° North 393 452 21,200 -2,033 Descending Indianapolis Center
Sat 07:39:31 AM 37.0353 -84.2067 347° North 390 449 19,200 -1,770 Descending Indianapolis Center
Sat 07:40:32 AM 37.1361 -84.2350 347° North 377 434 17,600 -1,869 Descending Indianapolis Center
Sat 07:41:33 AM 37.2322 -84.2622 347° North 358 412 15,400 -2,115 Descending Indianapolis Center
Sat 07:42:34 AM 37.3253 -84.2886 347° North 350 403 13,300 -1,918 Descending Indianapolis Center
Sat 07:43:35 AM 37.4156 -84.3136 348° North 337 388 11,500 -1,131 Descending Indianapolis Center
Sat 07:44:36 AM 37.4992 -84.3389 347° North 317 365 11,000 -934 Descending Indianapolis Center
Sat 07:45:37 AM 37.5697 -84.3744 338° Northwest 285 328 9,600 -1,525 Descending Indianapolis Center
Sat 07:46:38 AM 37.6386 -84.4225 331° Northwest 283 326 7,900 -1,525 Descending Indianapolis Center
Sat 07:47:39 AM 37.7061 -84.4689 331° Northwest 279 321 6,500 -1,279 Descending Indianapolis Center
Sat 07:48:40 AM 37.7733 -84.5131 333° Northwest 276 318 5,300 -1,377 Descending Indianapolis Center
Sat 07:49:41 AM 37.8381 -84.5594 330° Northwest 272 313 3,700 -1,091 Descending Indianapolis Center
Sat 07:50:41 AM 37.9025 -84.5983 335° Northwest 263 303 3,100 -545 Descending Indianapolis Center
Sat 07:51:42 AM 37.9519 -84.6303 333° Northwest 226 260 2,600 -689 Descending Indianapolis Center
Sat 07:52:43 AM 37.9981 -84.6447 346° North 175 201 1,700 -639 Descending Indianapolis Center
Sat 07:53:44 AM 38.0239 -84.6178 39° Northeast 161 185 1,300 -393 Descending Indianapolis Center

Login

Don't have an account? Register now (free) for customized features, flight alerts, and more!